sensor_id;sensor_type;location;lat;lon;timestamp;temperature;humidity
15259;DHT22;34462;51.368;12.364;2022-12-29T00:01:10;8.60;99.90
15259;DHT22;34462;51.368;12.364;2022-12-29T00:03:38;8.60;99.90
15259;DHT22;34462;51.368;12.364;2022-12-29T00:06:07;8.60;99.90
15259;DHT22;34462;51.368;12.364;2022-12-29T00:08:35;8.60;99.90
15259;DHT22;34462;51.368;12.364;2022-12-29T00:11:10;8.60;99.90
15259;DHT22;34462;51.368;12.364;2022-12-29T00:13:40;8.60;99.90
15259;DHT22;34462;51.368;12.364;2022-12-29T00:16:28;8.60;99.90
15259;DHT22;34462;51.368;12.364;2022-12-29T00:18:56;8.60;99.90
15259;DHT22;34462;51.368;12.364;2022-12-29T00:21:25;8.60;99.90
15259;DHT22;34462;51.368;12.364;2022-12-29T00:24:13;8.70;99.90
15259;DHT22;34462;51.368;12.364;2022-12-29T00:27:11;8.80;99.90
15259;DHT22;34462;51.368;12.364;2022-12-29T00:29:58;8.90;99.90
15259;DHT22;34462;51.368;12.364;2022-12-29T00:32:45;9.00;99.90
15259;DHT22;34462;51.368;12.364;2022-12-29T00:35:34;8.90;99.90
15259;DHT22;34462;51.368;12.364;2022-12-29T00:38:07;9.00;99.90
15259;DHT22;34462;51.368;12.364;2022-12-29T00:40:55;9.00;99.90
15259;DHT22;34462;51.368;12.364;2022-12-29T00:43:41;8.90;99.90
15259;DHT22;34462;51.368;12.364;2022-12-29T00:46:26;8.90;99.90
15259;DHT22;34462;51.368;12.364;2022-12-29T00:48:56;8.90;99.90
15259;DHT22;34462;51.368;12.364;2022-12-29T00:51:48;9.00;99.90
15259;DHT22;34462;51.368;12.364;2022-12-29T00:54:17;9.00;99.90
15259;DHT22;34462;51.368;12.364;2022-12-29T00:56:46;9.10;99.90
15259;DHT22;34462;51.368;12.364;2022-12-29T00:59:15;9.10;99.90
15259;DHT22;34462;51.368;12.364;2022-12-29T01:01:45;9.10;99.90
15259;DHT22;34462;51.368;12.364;2022-12-29T01:04:16;9.10;99.90
15259;DHT22;34462;51.368;12.364;2022-12-29T01:06:44;9.10;99.90
15259;DHT22;34462;51.368;12.364;2022-12-29T01:09:13;9.10;99.90
15259;DHT22;34462;51.368;12.364;2022-12-29T01:11:59;9.30;99.90
15259;DHT22;34462;51.368;12.364;2022-12-29T01:14:28;9.30;99.90
15259;DHT22;34462;51.368;12.364;2022-12-29T01:16:56;9.30;99.90
15259;DHT22;34462;51.368;12.364;2022-12-29T01:19:26;9.30;99.90
15259;DHT22;34462;51.368;12.364;2022-12-29T01:21:55;9.30;99.90
15259;DHT22;34462;51.368;12.364;2022-12-29T01:24:23;9.30;99.90
15259;DHT22;34462;51.368;12.364;2022-12-29T01:26:53;9.30;99.90
15259;DHT22;34462;51.368;12.364;2022-12-29T01:29:21;9.30;99.90
15259;DHT22;34462;51.368;12.364;2022-12-29T01:31:50;9.30;99.90
15259;DHT22;34462;51.368;12.364;2022-12-29T01:34:18;9.30;99.90
15259;DHT22;34462;51.368;12.364;2022-12-29T01:36:48;9.30;99.90
15259;DHT22;34462;51.368;12.364;2022-12-29T01:39:16;9.40;99.90
15259;DHT22;34462;51.368;12.364;2022-12-29T01:41:44;9.30;99.90
15259;DHT22;34462;51.368;12.364;2022-12-29T01:44:47;9.40;99.90
15259;DHT22;34462;51.368;12.364;2022-12-29T01:47:26;9.40;99.90
15259;DHT22;34462;51.368;12.364;2022-12-29T01:50:02;9.30;99.90
15259;DHT22;34462;51.368;12.364;2022-12-29T01:52:38;9.30;99.90
15259;DHT22;34462;51.368;12.364;2022-12-29T01:55:11;9.30;99.90
15259;DHT22;34462;51.368;12.364;2022-12-29T01:57:43;9.20;99.90
15259;DHT22;34462;51.368;12.364;2022-12-29T02:00:15;9.30;99.90
15259;DHT22;34462;51.368;12.364;2022-12-29T02:02:46;9.40;99.90
15259;DHT22;34462;51.368;12.364;2022-12-29T02:05:23;9.30;99.90
15259;DHT22;34462;51.368;12.364;2022-12-29T02:07:56;9.30;99.90
15259;DHT22;34462;51.368;12.364;2022-12-29T02:10:26;9.30;99.90
15259;DHT22;34462;51.368;12.364;2022-12-29T02:12:57;9.30;99.90
15259;DHT22;34462;51.368;12.364;2022-12-29T02:15:34;9.30;99.90
15259;DHT22;34462;51.368;12.364;2022-12-29T02:18:20;9.30;99.90
15259;DHT22;34462;51.368;12.364;2022-12-29T02:21:15;9.30;99.90
15259;DHT22;34462;51.368;12.364;2022-12-29T02:24:48;9.40;99.90
15259;DHT22;34462;51.368;12.364;2022-12-29T02:27:55;9.50;99.90
15259;DHT22;34462;51.368;12.364;2022-12-29T02:31:03;9.50;99.90
15259;DHT22;34462;51.368;12.364;2022-12-29T02:33:49;9.50;99.90
15259;DHT22;34462;51.368;12.364;2022-12-29T02:36:32;9.50;99.90
15259;DHT22;34462;51.368;12.364;2022-12-29T02:39:21;9.50;99.90
15259;DHT22;34462;51.368;12.364;2022-12-29T02:42:05;9.60;99.90
15259;DHT22;34462;51.368;12.364;2022-12-29T02:44:49;9.70;99.90
15259;DHT22;34462;51.368;12.364;2022-12-29T02:47:28;9.70;99.90
15259;DHT22;34462;51.368;12.364;2022-12-29T02:50:08;9.70;99.90
15259;DHT22;34462;51.368;12.364;2022-12-29T02:52:46;9.80;99.90
15259;DHT22;34462;51.368;12.364;2022-12-29T02:55:18;9.80;99.90
15259;DHT22;34462;51.368;12.364;2022-12-29T02:57:46;9.70;99.90
15259;DHT22;34462;51.368;12.364;2022-12-29T03:00:16;9.70;99.90
15259;DHT22;34462;51.368;12.364;2022-12-29T03:03:12;9.70;99.90
15259;DHT22;34462;51.368;12.364;2022-12-29T03:06:02;9.50;99.90
15259;DHT22;34462;51.368;12.364;2022-12-29T03:08:49;9.50;99.90
15259;DHT22;34462;51.368;12.364;2022-12-29T03:11:29;9.50;99.90
15259;DHT22;34462;51.368;12.364;2022-12-29T03:14:28;9.50;99.90
15259;DHT22;34462;51.368;12.364;2022-12-29T03:17:23;9.60;99.90
15259;DHT22;34462;51.368;12.364;2022-12-29T03:20:01;9.60;99.90
15259;DHT22;34462;51.368;12.364;2022-12-29T03:22:38;9.60;99.90
15259;DHT22;34462;51.368;12.364;2022-12-29T03:25:13;9.70;99.90
15259;DHT22;34462;51.368;12.364;2022-12-29T03:27:49;9.70;99.90
15259;DHT22;34462;51.368;12.364;2022-12-29T03:30:20;9.70;99.90
15259;DHT22;34462;51.368;12.364;2022-12-29T03:32:52;9.80;99.90
15259;DHT22;34462;51.368;12.364;2022-12-29T03:35:28;9.80;99.90
15259;DHT22;34462;51.368;12.364;2022-12-29T03:38:05;9.90;99.90
15259;DHT22;34462;51.368;12.364;2022-12-29T03:40:40;9.90;99.90
15259;DHT22;34462;51.368;12.364;2022-12-29T03:43:12;9.90;99.90
15259;DHT22;34462;51.368;12.364;2022-12-29T03:45:40;9.90;99.90
15259;DHT22;34462;51.368;12.364;2022-12-29T03:48:09;10.00;99.90
15259;DHT22;34462;51.368;12.364;2022-12-29T03:50:38;10.10;99.90
15259;DHT22;34462;51.368;12.364;2022-12-29T03:53:07;10.00;99.90
15259;DHT22;34462;51.368;12.364;2022-12-29T03:55:35;10.00;99.90
15259;DHT22;34462;51.368;12.364;2022-12-29T03:58:03;10.00;99.90
15259;DHT22;34462;51.368;12.364;2022-12-29T04:00:31;10.00;99.90
15259;DHT22;34462;51.368;12.364;2022-12-29T04:03:00;10.00;99.90
15259;DHT22;34462;51.368;12.364;2022-12-29T04:05:28;9.90;99.90
15259;DHT22;34462;51.368;12.364;2022-12-29T04:07:59;9.90;99.90
15259;DHT22;34462;51.368;12.364;2022-12-29T04:10:28;9.90;99.90
15259;DHT22;34462;51.368;12.364;2022-12-29T04:12:56;10.00;99.90
15259;DHT22;34462;51.368;12.364;2022-12-29T04:15:24;10.10;99.90
15259;DHT22;34462;51.368;12.364;2022-12-29T04:17:53;10.10;99.90
15259;DHT22;34462;51.368;12.364;2022-12-29T04:20:21;10.00;99.90
15259;DHT22;34462;51.368;12.364;2022-12-29T04:23:08;10.00;99.90
15259;DHT22;34462;51.368;12.364;2022-12-29T04:25:36;10.00;99.90
15259;DHT22;34462;51.368;12.364;2022-12-29T04:28:04;9.90;99.90
15259;DHT22;34462;51.368;12.364;2022-12-29T04:30:34;9.90;99.90
15259;DHT22;34462;51.368;12.364;2022-12-29T04:33:02;9.90;99.90
15259;DHT22;34462;51.368;12.364;2022-12-29T04:35:31;9.80;99.90
15259;DHT22;34462;51.368;12.364;2022-12-29T04:37:59;9.70;99.90
15259;DHT22;34462;51.368;12.364;2022-12-29T04:40:29;9.80;99.90
15259;DHT22;34462;51.368;12.364;2022-12-29T04:42:57;9.80;99.90
15259;DHT22;34462;51.368;12.364;2022-12-29T04:45:25;9.80;99.90
15259;DHT22;34462;51.368;12.364;2022-12-29T04:47:53;9.90;99.90
15259;DHT22;34462;51.368;12.364;2022-12-29T04:50:21;9.90;99.90
15259;DHT22;34462;51.368;12.364;2022-12-29T04:52:49;10.00;99.90
15259;DHT22;34462;51.368;12.364;2022-12-29T04:55:18;10.00;99.90
15259;DHT22;34462;51.368;12.364;2022-12-29T04:57:47;9.90;99.90
15259;DHT22;34462;51.368;12.364;2022-12-29T05:00:16;10.00;99.90
15259;DHT22;34462;51.368;12.364;2022-12-29T05:02:44;9.90;99.90
15259;DHT22;34462;51.368;12.364;2022-12-29T05:05:13;9.90;99.90
15259;DHT22;34462;51.368;12.364;2022-12-29T05:07:41;9.90;99.90
15259;DHT22;34462;51.368;12.364;2022-12-29T05:10:10;9.90;99.90
15259;DHT22;34462;51.368;12.364;2022-12-29T05:12:38;9.80;99.90
15259;DHT22;34462;51.368;12.364;2022-12-29T05:15:09;9.70;99.90
15259;DHT22;34462;51.368;12.364;2022-12-29T05:17:38;9.70;99.90
15259;DHT22;34462;51.368;12.364;2022-12-29T05:20:07;9.60;99.90
15259;DHT22;34462;51.368;12.364;2022-12-29T05:22:36;9.50;99.90
15259;DHT22;34462;51.368;12.364;2022-12-29T05:25:05;9.50;99.90
15259;DHT22;34462;51.368;12.364;2022-12-29T05:27:34;9.60;99.90
15259;DHT22;34462;51.368;12.364;2022-12-29T05:30:03;9.60;99.90
15259;DHT22;34462;51.368;12.364;2022-12-29T05:32:34;9.50;99.90
15259;DHT22;34462;51.368;12.364;2022-12-29T05:35:03;9.40;99.90
15259;DHT22;34462;51.368;12.364;2022-12-29T05:37:32;9.40;99.90
15259;DHT22;34462;51.368;12.364;2022-12-29T05:40:00;9.40;99.90
15259;DHT22;34462;51.368;12.364;2022-12-29T05:42:28;9.40;99.90
15259;DHT22;34462;51.368;12.364;2022-12-29T05:44:56;9.40;99.90
15259;DHT22;34462;51.368;12.364;2022-12-29T05:47:24;9.50;99.90
15259;DHT22;34462;51.368;12.364;2022-12-29T05:49:54;9.40;99.90
15259;DHT22;34462;51.368;12.364;2022-12-29T05:52:22;9.50;99.90
15259;DHT22;34462;51.368;12.364;2022-12-29T05:54:50;9.50;99.90
15259;DHT22;34462;51.368;12.364;2022-12-29T05:57:19;9.60;99.90
15259;DHT22;34462;51.368;12.364;2022-12-29T05:59:47;9.50;99.90
15259;DHT22;34462;51.368;12.364;2022-12-29T06:02:15;9.40;99.90
15259;DHT22;34462;51.368;12.364;2022-12-29T06:04:43;9.40;99.90
15259;DHT22;34462;51.368;12.364;2022-12-29T06:07:13;9.40;99.90
15259;DHT22;34462;51.368;12.364;2022-12-29T06:09:41;9.40;99.90
15259;DHT22;34462;51.368;12.364;2022-12-29T06:12:09;9.40;99.90
15259;DHT22;34462;51.368;12.364;2022-12-29T06:14:37;9.40;99.90
15259;DHT22;34462;51.368;12.364;2022-12-29T06:17:05;9.40;99.90
15259;DHT22;34462;51.368;12.364;2022-12-29T06:19:34;9.70;99.90
15259;DHT22;34462;51.368;12.364;2022-12-29T06:22:02;9.70;99.90
15259;DHT22;34462;51.368;12.364;2022-12-29T06:24:32;9.70;99.90
15259;DHT22;34462;51.368;12.364;2022-12-29T06:27:00;9.80;99.90
15259;DHT22;34462;51.368;12.364;2022-12-29T06:29:29;9.80;99.90
15259;DHT22;34462;51.368;12.364;2022-12-29T06:31:57;9.90;99.90
15259;DHT22;34462;51.368;12.364;2022-12-29T06:34:25;9.90;99.90
15259;DHT22;34462;51.368;12.364;2022-12-29T06:36:53;9.90;99.90
15259;DHT22;34462;51.368;12.364;2022-12-29T06:39:21;10.00;99.90
15259;DHT22;34462;51.368;12.364;2022-12-29T06:41:53;10.10;99.90
15259;DHT22;34462;51.368;12.364;2022-12-29T06:44:22;10.00;99.90
15259;DHT22;34462;51.368;12.364;2022-12-29T06:46:50;10.10;99.90
15259;DHT22;34462;51.368;12.364;2022-12-29T06:49:18;10.10;99.90
15259;DHT22;34462;51.368;12.364;2022-12-29T06:51:47;10.10;99.90
15259;DHT22;34462;51.368;12.364;2022-12-29T06:54:15;10.10;99.90
15259;DHT22;34462;51.368;12.364;2022-12-29T06:56:44;10.00;99.90
15259;DHT22;34462;51.368;12.364;2022-12-29T06:59:13;10.00;99.90
15259;DHT22;34462;51.368;12.364;2022-12-29T07:01:43;10.00;99.90
15259;DHT22;34462;51.368;12.364;2022-12-29T07:04:11;10.00;99.90
15259;DHT22;34462;51.368;12.364;2022-12-29T07:06:39;9.90;99.90
15259;DHT22;34462;51.368;12.364;2022-12-29T07:09:08;9.80;99.90
15259;DHT22;34462;51.368;12.364;2022-12-29T07:11:37;9.80;99.90
15259;DHT22;34462;51.368;12.364;2022-12-29T07:14:05;9.70;99.90
15259;DHT22;34462;51.368;12.364;2022-12-29T07:16:35;9.70;99.90
15259;DHT22;34462;51.368;12.364;2022-12-29T07:19:03;9.60;99.90
15259;DHT22;34462;51.368;12.364;2022-12-29T07:21:32;9.60;99.90
15259;DHT22;34462;51.368;12.364;2022-12-29T07:24:01;9.50;99.90
15259;DHT22;34462;51.368;12.364;2022-12-29T07:26:29;9.50;99.90
15259;DHT22;34462;51.368;12.364;2022-12-29T07:29:02;9.60;99.90
15259;DHT22;34462;51.368;12.364;2022-12-29T07:31:30;9.70;99.90
15259;DHT22;34462;51.368;12.364;2022-12-29T07:34:01;9.60;99.90
15259;DHT22;34462;51.368;12.364;2022-12-29T07:36:29;9.70;99.90
15259;DHT22;34462;51.368;12.364;2022-12-29T07:39:00;9.80;99.90
15259;DHT22;34462;51.368;12.364;2022-12-29T07:41:28;9.70;99.90
15259;DHT22;34462;51.368;12.364;2022-12-29T07:43:56;9.60;99.90
15259;DHT22;34462;51.368;12.364;2022-12-29T07:46:25;9.70;99.90
15259;DHT22;34462;51.368;12.364;2022-12-29T07:49:14;9.70;99.90
15259;DHT22;34462;51.368;12.364;2022-12-29T07:51:42;9.70;99.90
15259;DHT22;34462;51.368;12.364;2022-12-29T07:54:10;9.70;99.90
15259;DHT22;34462;51.368;12.364;2022-12-29T07:56:39;9.70;99.90
15259;DHT22;34462;51.368;12.364;2022-12-29T07:59:07;9.80;99.90
15259;DHT22;34462;51.368;12.364;2022-12-29T08:01:36;9.90;99.90
15259;DHT22;34462;51.368;12.364;2022-12-29T08:04:04;9.90;99.90
15259;DHT22;34462;51.368;12.364;2022-12-29T08:06:34;9.90;99.90
15259;DHT22;34462;51.368;12.364;2022-12-29T08:09:04;9.90;99.90
15259;DHT22;34462;51.368;12.364;2022-12-29T08:11:45;10.00;99.90
15259;DHT22;34462;51.368;12.364;2022-12-29T08:14:13;10.10;99.90
15259;DHT22;34462;51.368;12.364;2022-12-29T08:16:41;10.10;99.90
15259;DHT22;34462;51.368;12.364;2022-12-29T08:19:10;10.20;99.90
15259;DHT22;34462;51.368;12.364;2022-12-29T08:21:40;10.20;99.90
15259;DHT22;34462;51.368;12.364;2022-12-29T08:24:09;10.30;99.90
15259;DHT22;34462;51.368;12.364;2022-12-29T08:26:37;10.20;99.90
15259;DHT22;34462;51.368;12.364;2022-12-29T08:29:05;10.20;99.90
15259;DHT22;34462;51.368;12.364;2022-12-29T08:31:33;10.30;99.90
15259;DHT22;34462;51.368;12.364;2022-12-29T08:34:02;10.40;99.90
15259;DHT22;34462;51.368;12.364;2022-12-29T08:36:30;10.40;99.90
15259;DHT22;34462;51.368;12.364;2022-12-29T08:39:00;10.50;99.90
15259;DHT22;34462;51.368;12.364;2022-12-29T08:41:28;10.50;99.90
15259;DHT22;34462;51.368;12.364;2022-12-29T08:43:56;10.50;99.90
15259;DHT22;34462;51.368;12.364;2022-12-29T08:46:25;10.50;99.90
15259;DHT22;34462;51.368;12.364;2022-12-29T08:48:53;10.50;99.90
15259;DHT22;34462;51.368;12.364;2022-12-29T08:51:22;10.60;99.90
15259;DHT22;34462;51.368;12.364;2022-12-29T08:53:51;10.60;99.90
15259;DHT22;34462;51.368;12.364;2022-12-29T08:56:21;10.70;99.90
15259;DHT22;34462;51.368;12.364;2022-12-29T08:58:50;10.70;99.90
15259;DHT22;34462;51.368;12.364;2022-12-29T09:01:18;10.80;99.90
15259;DHT22;34462;51.368;12.364;2022-12-29T09:03:48;10.80;99.90
15259;DHT22;34462;51.368;12.364;2022-12-29T09:06:36;10.80;99.90
15259;DHT22;34462;51.368;12.364;2022-12-29T09:09:06;10.90;99.90
15259;DHT22;34462;51.368;12.364;2022-12-29T09:11:36;11.00;99.90
15259;DHT22;34462;51.368;12.364;2022-12-29T09:14:04;10.90;99.90
15259;DHT22;34462;51.368;12.364;2022-12-29T09:16:33;11.00;99.90
15259;DHT22;34462;51.368;12.364;2022-12-29T09:19:02;11.00;99.90
15259;DHT22;34462;51.368;12.364;2022-12-29T09:21:31;11.00;99.90
15259;DHT22;34462;51.368;12.364;2022-12-29T09:23:59;11.10;99.90
15259;DHT22;34462;51.368;12.364;2022-12-29T09:26:27;11.20;99.90
15259;DHT22;34462;51.368;12.364;2022-12-29T09:28:57;11.30;99.90
15259;DHT22;34462;51.368;12.364;2022-12-29T09:31:25;11.40;99.90
15259;DHT22;34462;51.368;12.364;2022-12-29T09:33:53;11.50;99.90
15259;DHT22;34462;51.368;12.364;2022-12-29T09:36:21;11.50;99.90
15259;DHT22;34462;51.368;12.364;2022-12-29T09:38:49;11.70;99.90
15259;DHT22;34462;51.368;12.364;2022-12-29T09:41:23;11.70;99.90
15259;DHT22;34462;51.368;12.364;2022-12-29T09:44:08;11.70;99.90
15259;DHT22;34462;51.368;12.364;2022-12-29T09:46:47;11.80;99.90
15259;DHT22;34462;51.368;12.364;2022-12-29T09:49:23;11.80;99.90
15259;DHT22;34462;51.368;12.364;2022-12-29T09:52:01;11.90;99.90
15259;DHT22;34462;51.368;12.364;2022-12-29T09:54:45;12.00;99.90
15259;DHT22;34462;51.368;12.364;2022-12-29T09:57:32;12.10;99.90
15259;DHT22;34462;51.368;12.364;2022-12-29T10:00:11;12.20;99.90
15259;DHT22;34462;51.368;12.364;2022-12-29T10:02:44;12.30;99.90
15259;DHT22;34462;51.368;12.364;2022-12-29T10:05:23;12.40;99.90
15259;DHT22;34462;51.368;12.364;2022-12-29T10:08:12;12.40;99.90
15259;DHT22;34462;51.368;12.364;2022-12-29T10:10:54;12.50;99.90
15259;DHT22;34462;51.368;12.364;2022-12-29T10:13:36;12.60;99.90
15259;DHT22;34462;51.368;12.364;2022-12-29T10:16:22;12.50;99.90
15259;DHT22;34462;51.368;12.364;2022-12-29T10:19:13;12.40;99.90
15259;DHT22;34462;51.368;12.364;2022-12-29T10:22:07;12.40;99.90
15259;DHT22;34462;51.368;12.364;2022-12-29T10:24:47;12.30;99.90
15259;DHT22;34462;51.368;12.364;2022-12-29T10:27:18;12.20;99.90
15259;DHT22;34462;51.368;12.364;2022-12-29T10:29:50;12.00;99.90
15259;DHT22;34462;51.368;12.364;2022-12-29T10:32:28;12.00;99.90
15259;DHT22;34462;51.368;12.364;2022-12-29T10:35:06;11.90;99.90
15259;DHT22;34462;51.368;12.364;2022-12-29T10:37:46;11.80;99.90
15259;DHT22;34462;51.368;12.364;2022-12-29T10:40:24;11.80;99.90
15259;DHT22;34462;51.368;12.364;2022-12-29T10:42:57;11.80;99.90
15259;DHT22;34462;51.368;12.364;2022-12-29T10:45:29;11.90;99.90
15259;DHT22;34462;51.368;12.364;2022-12-29T10:48:03;11.90;99.90
15259;DHT22;34462;51.368;12.364;2022-12-29T10:50:36;12.00;99.90
15259;DHT22;34462;51.368;12.364;2022-12-29T10:53:18;12.20;99.90
15259;DHT22;34462;51.368;12.364;2022-12-29T10:55:49;12.30;99.90
15259;DHT22;34462;51.368;12.364;2022-12-29T10:58:19;12.30;99.90
15259;DHT22;34462;51.368;12.364;2022-12-29T11:00:50;12.40;99.90
15259;DHT22;34462;51.368;12.364;2022-12-29T11:03:43;12.30;99.90
15259;DHT22;34462;51.368;12.364;2022-12-29T11:06:22;12.40;99.90
15259;DHT22;34462;51.368;12.364;2022-12-29T11:08:55;12.50;99.90
15259;DHT22;34462;51.368;12.364;2022-12-29T11:11:27;12.50;99.90
15259;DHT22;34462;51.368;12.364;2022-12-29T11:14:08;12.60;99.90
15259;DHT22;34462;51.368;12.364;2022-12-29T11:16:40;12.70;99.90
15259;DHT22;34462;51.368;12.364;2022-12-29T11:19:23;12.80;99.90
15259;DHT22;34462;51.368;12.364;2022-12-29T11:21:54;12.80;99.90
15259;DHT22;34462;51.368;12.364;2022-12-29T11:24:24;12.90;99.90
15259;DHT22;34462;51.368;12.364;2022-12-29T11:26:54;13.00;99.90
15259;DHT22;34462;51.368;12.364;2022-12-29T11:29:37;13.10;99.90
15259;DHT22;34462;51.368;12.364;2022-12-29T11:32:12;13.20;99.90
15259;DHT22;34462;51.368;12.364;2022-12-29T11:34:55;13.30;99.90
15259;DHT22;34462;51.368;12.364;2022-12-29T11:37:28;13.30;99.90
15259;DHT22;34462;51.368;12.364;2022-12-29T11:40:02;13.30;99.90
15259;DHT22;34462;51.368;12.364;2022-12-29T11:42:36;13.20;99.90
15259;DHT22;34462;51.368;12.364;2022-12-29T11:45:15;13.10;99.90
15259;DHT22;34462;51.368;12.364;2022-12-29T11:47:47;13.00;99.90
15259;DHT22;34462;51.368;12.364;2022-12-29T11:50:22;13.00;99.90
15259;DHT22;34462;51.368;12.364;2022-12-29T11:52:58;13.00;99.90
15259;DHT22;34462;51.368;12.364;2022-12-29T11:55:29;13.10;99.90
15259;DHT22;34462;51.368;12.364;2022-12-29T11:58:01;13.10;99.90
15259;DHT22;34462;51.368;12.364;2022-12-29T12:00:34;13.10;99.90
15259;DHT22;34462;51.368;12.364;2022-12-29T12:03:12;13.10;99.90
15259;DHT22;34462;51.368;12.364;2022-12-29T12:05:48;13.10;99.90
15259;DHT22;34462;51.368;12.364;2022-12-29T12:08:28;13.10;99.90
15259;DHT22;34462;51.368;12.364;2022-12-29T12:11:07;13.10;99.90
15259;DHT22;34462;51.368;12.364;2022-12-29T12:13:43;13.30;99.90
15259;DHT22;34462;51.368;12.364;2022-12-29T12:16:18;13.50;99.90
15259;DHT22;34462;51.368;12.364;2022-12-29T12:18:51;13.50;99.90
15259;DHT22;34462;51.368;12.364;2022-12-29T12:21:30;13.60;99.90
15259;DHT22;34462;51.368;12.364;2022-12-29T12:24:24;13.70;99.90
15259;DHT22;34462;51.368;12.364;2022-12-29T12:27:10;13.60;99.90
15259;DHT22;34462;51.368;12.364;2022-12-29T12:29:48;13.60;99.90
15259;DHT22;34462;51.368;12.364;2022-12-29T12:32:23;13.60;99.90
15259;DHT22;34462;51.368;12.364;2022-12-29T12:34:57;13.70;99.90
15259;DHT22;34462;51.368;12.364;2022-12-29T12:37:37;13.70;99.90
15259;DHT22;34462;51.368;12.364;2022-12-29T12:40:51;13.80;99.90
15259;DHT22;34462;51.368;12.364;2022-12-29T12:43:49;13.80;99.90
15259;DHT22;34462;51.368;12.364;2022-12-29T12:46:40;13.70;99.90
15259;DHT22;34462;51.368;12.364;2022-12-29T12:49:52;13.70;99.90
15259;DHT22;34462;51.368;12.364;2022-12-29T12:53:01;13.70;99.90
15259;DHT22;34462;51.368;12.364;2022-12-29T12:55:53;13.60;99.90
15259;DHT22;34462;51.368;12.364;2022-12-29T12:58:40;13.50;99.90
15259;DHT22;34462;51.368;12.364;2022-12-29T13:01:26;13.40;99.90
15259;DHT22;34462;51.368;12.364;2022-12-29T13:04:32;13.30;99.90
15259;DHT22;34462;51.368;12.364;2022-12-29T13:07:16;13.20;99.90
15259;DHT22;34462;51.368;12.364;2022-12-29T13:10:12;13.20;99.90
15259;DHT22;34462;51.368;12.364;2022-12-29T13:12:53;13.10;99.90
15259;DHT22;34462;51.368;12.364;2022-12-29T13:15:41;13.20;99.90
15259;DHT22;34462;51.368;12.364;2022-12-29T13:18:21;13.20;99.90
15259;DHT22;34462;51.368;12.364;2022-12-29T13:21:04;13.20;99.90
15259;DHT22;34462;51.368;12.364;2022-12-29T13:23:45;13.20;99.90
15259;DHT22;34462;51.368;12.364;2022-12-29T13:26:22;13.10;99.90
15259;DHT22;34462;51.368;12.364;2022-12-29T13:29:04;13.20;99.90
15259;DHT22;34462;51.368;12.364;2022-12-29T13:31:46;13.00;99.90
15259;DHT22;34462;51.368;12.364;2022-12-29T13:34:29;13.00;99.90
15259;DHT22;34462;51.368;12.364;2022-12-29T13:37:11;12.90;99.90
15259;DHT22;34462;51.368;12.364;2022-12-29T13:39:46;12.90;99.90
15259;DHT22;34462;51.368;12.364;2022-12-29T13:42:19;12.90;99.90
15259;DHT22;34462;51.368;12.364;2022-12-29T13:44:53;12.80;99.90
15259;DHT22;34462;51.368;12.364;2022-12-29T13:47:29;12.70;99.90
15259;DHT22;34462;51.368;12.364;2022-12-29T13:50:05;12.60;99.90
15259;DHT22;34462;51.368;12.364;2022-12-29T13:52:48;12.50;99.90
15259;DHT22;34462;51.368;12.364;2022-12-29T13:55:27;12.40;99.90
15259;DHT22;34462;51.368;12.364;2022-12-29T13:58:04;12.40;99.90
15259;DHT22;34462;51.368;12.364;2022-12-29T14:00:48;12.30;99.90
15259;DHT22;34462;51.368;12.364;2022-12-29T14:03:47;12.20;99.90
15259;DHT22;34462;51.368;12.364;2022-12-29T14:06:25;12.10;99.90
15259;DHT22;34462;51.368;12.364;2022-12-29T14:08:57;12.10;99.90
15259;DHT22;34462;51.368;12.364;2022-12-29T14:11:31;12.10;99.90
15259;DHT22;34462;51.368;12.364;2022-12-29T14:14:11;12.10;99.90
15259;DHT22;34462;51.368;12.364;2022-12-29T14:16:46;12.10;99.90
15259;DHT22;34462;51.368;12.364;2022-12-29T14:19:17;12.00;99.90
15259;DHT22;34462;51.368;12.364;2022-12-29T14:21:54;12.00;99.90
15259;DHT22;34462;51.368;12.364;2022-12-29T14:24:39;12.10;99.90
15259;DHT22;34462;51.368;12.364;2022-12-29T14:27:43;12.00;99.90
15259;DHT22;34462;51.368;12.364;2022-12-29T14:33:30;11.90;99.90
15259;DHT22;34462;51.368;12.364;2022-12-29T14:36:20;11.90;99.90
15259;DHT22;34462;51.368;12.364;2022-12-29T14:38:50;11.70;99.90
15259;DHT22;34462;51.368;12.364;2022-12-29T14:41:26;11.60;99.90
15259;DHT22;34462;51.368;12.364;2022-12-29T14:44:03;11.60;99.90
15259;DHT22;34462;51.368;12.364;2022-12-29T14:46:54;11.50;99.90
15259;DHT22;34462;51.368;12.364;2022-12-29T14:49:28;11.40;99.90
15259;DHT22;34462;51.368;12.364;2022-12-29T14:52:07;11.30;99.90
15259;DHT22;34462;51.368;12.364;2022-12-29T14:54:48;11.30;99.90
15259;DHT22;34462;51.368;12.364;2022-12-29T14:57:33;11.30;99.90
15259;DHT22;34462;51.368;12.364;2022-12-29T15:00:22;11.20;99.90
15259;DHT22;34462;51.368;12.364;2022-12-29T15:03:03;11.20;99.90
15259;DHT22;34462;51.368;12.364;2022-12-29T15:05:37;11.00;99.90
15259;DHT22;34462;51.368;12.364;2022-12-29T15:08:11;11.00;99.90
15259;DHT22;34462;51.368;12.364;2022-12-29T15:10:43;11.00;99.90
15259;DHT22;34462;51.368;12.364;2022-12-29T15:13:18;11.00;99.90
15259;DHT22;34462;51.368;12.364;2022-12-29T15:15:50;11.00;99.90
15259;DHT22;34462;51.368;12.364;2022-12-29T15:18:26;11.10;99.90
15259;DHT22;34462;51.368;12.364;2022-12-29T15:20:58;11.10;99.90
15259;DHT22;34462;51.368;12.364;2022-12-29T15:23:30;11.10;99.90
15259;DHT22;34462;51.368;12.364;2022-12-29T15:26:02;11.10;99.90
15259;DHT22;34462;51.368;12.364;2022-12-29T15:28:37;11.20;99.90
15259;DHT22;34462;51.368;12.364;2022-12-29T15:31:11;11.20;99.90
15259;DHT22;34462;51.368;12.364;2022-12-29T15:33:44;11.20;99.90
15259;DHT22;34462;51.368;12.364;2022-12-29T15:36:18;11.20;99.90
15259;DHT22;34462;51.368;12.364;2022-12-29T15:38:49;11.10;99.90
15259;DHT22;34462;51.368;12.364;2022-12-29T15:41:25;11.00;99.90
15259;DHT22;34462;51.368;12.364;2022-12-29T15:44:24;10.90;99.90
15259;DHT22;34462;51.368;12.364;2022-12-29T15:46:56;10.70;99.90
15259;DHT22;34462;51.368;12.364;2022-12-29T15:49:26;10.60;99.90
15259;DHT22;34462;51.368;12.364;2022-12-29T15:51:58;10.50;99.90
15259;DHT22;34462;51.368;12.364;2022-12-29T15:54:29;10.50;99.90
15259;DHT22;34462;51.368;12.364;2022-12-29T15:56:59;10.40;99.90
15259;DHT22;34462;51.368;12.364;2022-12-29T15:59:29;10.40;99.90
15259;DHT22;34462;51.368;12.364;2022-12-29T16:02:00;10.30;99.90
15259;DHT22;34462;51.368;12.364;2022-12-29T16:04:39;10.20;99.90
15259;DHT22;34462;51.368;12.364;2022-12-29T16:07:30;10.10;99.90
15259;DHT22;34462;51.368;12.364;2022-12-29T16:10:25;10.10;99.90
15259;DHT22;34462;51.368;12.364;2022-12-29T16:13:05;10.00;99.90
15259;DHT22;34462;51.368;12.364;2022-12-29T16:15:45;10.00;99.90